Terminal Aerodrome Forecast
Issued by NWS Knoxville/Tri Cities, TN

Home | Current Version | Previous Version | Text Only | Print | Product List | Glossary On
Versions: 1 2 3 4 5 6 7 8 9 10 11 12 13 14 15 16 17 18 19 20 21 22 23 24 25 26 27 28 29 30 31 32 33 34 35 36 37
000
FTUS44 KMRX 192322
TAFTYS
TAF
KTYS 192322Z 2000/2024 04007KT P6SM VCSH SCT040 OVC090
      TEMPO 2000/2004 5SM -RA SCT026 OVC040
     FM200400 VRB05KT 6SM -RA BR OVC026
     FM200900 VRB03KT 4SM -RA BR OVC015
     FM201500 23005KT 6SM BR VCSH SCT015 OVC022
     FM201900 22008KT P6SM SCT030 BKN040=

USA.gov is the U.S. government's official web portal to all federal, state and local government web resources and services.